createdAt,value
2023-04-18T00:00:09.299Z,27.54
2023-04-18T00:01:09.316Z,27.57
2023-04-18T00:02:09.420Z,27.51
2023-04-18T00:03:09.573Z,27.50
2023-04-18T00:04:09.492Z,27.54
2023-04-18T00:05:09.430Z,27.54
2023-04-18T00:06:09.336Z,27.50
2023-04-18T00:07:09.424Z,27.55
2023-04-18T00:08:09.520Z,27.50
2023-04-18T00:09:09.629Z,27.55
2023-04-18T00:10:09.584Z,27.50
2023-04-18T00:11:09.605Z,27.50
2023-04-18T00:12:09.597Z,27.54
2023-04-18T00:13:09.615Z,27.53
2023-04-18T00:14:09.613Z,27.50
2023-04-18T00:15:09.641Z,27.53
2023-04-18T00:16:09.708Z,27.53
2023-04-18T00:17:09.786Z,27.51
2023-04-18T00:18:09.697Z,27.50
2023-04-18T00:19:09.706Z,27.50
2023-04-18T00:20:09.707Z,27.53
2023-04-18T00:21:09.797Z,27.51
2023-04-18T00:22:09.894Z,27.53
2023-04-18T00:23:12.138Z,27.54
2023-04-18T00:24:09.988Z,27.51
2023-04-18T00:25:09.955Z,27.53
2023-04-18T00:26:09.979Z,27.50
2023-04-18T00:27:09.981Z,27.54
2023-04-18T00:28:09.935Z,27.50
2023-04-18T00:29:09.923Z,27.51
2023-04-18T00:30:09.944Z,27.55
2023-04-18T00:31:09.977Z,27.51
2023-04-18T00:32:09.905Z,27.53
2023-04-18T00:33:09.913Z,27.51
2023-04-18T00:34:09.898Z,27.53
2023-04-18T00:35:09.914Z,27.50
2023-04-18T00:36:09.893Z,27.48
2023-04-18T00:37:09.922Z,27.50
2023-04-18T00:38:09.879Z,27.48
2023-04-18T00:39:09.902Z,27.50
2023-04-18T00:40:09.853Z,27.51
2023-04-18T00:41:09.865Z,27.47
2023-04-18T00:42:09.874Z,27.48
2023-04-18T00:43:09.836Z,27.51
2023-04-18T00:44:09.890Z,27.51
2023-04-18T00:45:09.837Z,27.46
2023-04-18T00:46:09.897Z,27.50
2023-04-18T00:47:09.853Z,27.46
2023-04-18T00:48:09.811Z,27.50
2023-04-18T00:49:09.828Z,27.47
2023-04-18T00:50:09.847Z,27.48
2023-04-18T00:51:09.818Z,27.46
2023-04-18T00:52:09.773Z,27.44
2023-04-18T00:53:09.797Z,27.50
2023-04-18T00:54:09.790Z,27.47
2023-04-18T00:55:09.782Z,27.48
2023-04-18T00:56:09.763Z,27.48
2023-04-18T00:57:09.730Z,27.48
2023-04-18T00:58:09.780Z,27.50
2023-04-18T00:59:09.728Z,27.48
2023-04-18T01:00:09.785Z,27.44
2023-04-18T01:01:09.789Z,27.46
2023-04-18T01:02:09.753Z,27.46
2023-04-18T01:03:09.793Z,27.43
2023-04-18T01:04:09.851Z,27.43
2023-04-18T01:05:09.721Z,27.43
2023-04-18T01:06:09.683Z,27.48
2023-04-18T01:07:09.707Z,27.46
2023-04-18T01:08:09.698Z,27.44
2023-04-18T01:09:09.686Z,27.44
2023-04-18T01:10:09.684Z,27.46
2023-04-18T01:11:09.705Z,27.42
2023-04-18T01:12:09.675Z,27.43
2023-04-18T01:13:09.624Z,27.42
2023-04-18T01:14:09.655Z,27.47
2023-04-18T01:15:09.647Z,27.46
2023-04-18T01:16:09.801Z,27.47
2023-04-18T01:17:09.631Z,27.42
2023-04-18T01:18:09.664Z,27.42
2023-04-18T01:19:09.609Z,27.44
2023-04-18T01:20:09.621Z,27.44
2023-04-18T01:21:09.589Z,27.45
2023-04-18T01:22:09.609Z,27.42
2023-04-18T01:23:09.554Z,27.44
2023-04-18T01:24:09.581Z,27.42
2023-04-18T01:25:09.594Z,27.42
2023-04-18T01:26:09.553Z,27.40
2023-04-18T01:27:09.539Z,27.45
2023-04-18T01:28:09.558Z,27.44
2023-04-18T01:29:09.560Z,27.42
2023-04-18T01:30:09.550Z,27.36
2023-04-18T01:31:09.520Z,27.44
2023-04-18T01:32:09.495Z,27.40
2023-04-18T01:33:09.511Z,27.39
2023-04-18T01:34:09.501Z,27.42
2023-04-18T01:35:09.566Z,27.42
2023-04-18T01:36:09.494Z,27.39
2023-04-18T01:37:09.464Z,27.39
2023-04-18T01:38:09.456Z,27.46
2023-04-18T01:39:09.513Z,27.42
2023-04-18T01:40:09.482Z,27.38
2023-04-18T01:41:09.443Z,27.37
2023-04-18T01:42:09.461Z,27.43
2023-04-18T01:43:09.452Z,27.40
2023-04-18T01:44:09.418Z,27.43
2023-04-18T01:45:09.436Z,27.42
2023-04-18T01:46:09.435Z,27.42
2023-04-18T01:47:09.392Z,27.43
2023-04-18T01:48:09.399Z,27.43
2023-04-18T01:49:09.393Z,27.39
2023-04-18T01:50:09.402Z,27.43
2023-04-18T01:51:09.492Z,27.35
2023-04-18T01:52:09.395Z,27.42
2023-04-18T01:53:09.379Z,27.40
2023-04-18T01:54:09.386Z,27.37
2023-04-18T01:55:09.396Z,27.39
2023-04-18T01:56:09.388Z,27.40
2023-04-18T01:57:09.386Z,27.36
2023-04-18T01:58:09.381Z,27.43
2023-04-18T01:59:09.343Z,27.36
2023-04-18T02:00:09.363Z,27.34
2023-04-18T02:01:09.342Z,27.39
2023-04-18T02:02:09.391Z,27.37
2023-04-18T02:03:09.473Z,27.37
2023-04-18T02:04:09.346Z,27.35
2023-04-18T02:05:09.319Z,27.39
2023-04-18T02:06:09.313Z,27.36
2023-04-18T02:07:09.289Z,27.39
2023-04-18T02:08:09.275Z,27.40
2023-04-18T02:09:09.259Z,27.33
2023-04-18T02:10:09.268Z,27.38
2023-04-18T02:11:09.282Z,27.33
2023-04-18T02:12:09.256Z,27.37
2023-04-18T02:13:09.273Z,27.40
2023-04-18T02:14:09.262Z,27.36
2023-04-18T02:15:09.219Z,27.33
2023-04-18T02:16:09.259Z,27.34
2023-04-18T02:17:09.204Z,27.33
2023-04-18T02:18:09.216Z,27.38
2023-04-18T02:19:09.215Z,27.35
2023-04-18T02:20:09.231Z,27.34
2023-04-18T02:21:09.218Z,27.34
2023-04-18T02:22:09.212Z,27.33
2023-04-18T02:23:09.172Z,27.34
2023-04-18T02:24:09.206Z,27.40
2023-04-18T02:25:09.207Z,27.33
2023-04-18T02:26:09.176Z,27.36
2023-04-18T02:27:09.141Z,27.33
2023-04-18T02:28:09.147Z,27.34
2023-04-18T02:29:09.122Z,27.32
2023-04-18T02:30:09.140Z,27.34
2023-04-18T02:31:09.120Z,27.36
2023-04-18T02:32:09.259Z,27.33
2023-04-18T02:33:09.135Z,27.30
2023-04-18T02:34:09.142Z,27.34
2023-04-18T02:35:09.137Z,27.33
2023-04-18T02:36:09.092Z,27.37
2023-04-18T02:37:09.098Z,27.34
2023-04-18T02:38:09.086Z,27.33
2023-04-18T02:39:09.085Z,27.34
2023-04-18T02:40:09.095Z,27.33
2023-04-18T02:41:09.088Z,27.33
2023-04-18T02:42:09.064Z,27.30
2023-04-18T02:43:09.043Z,27.34
2023-04-18T02:44:09.017Z,27.32
2023-04-18T02:45:09.037Z,27.29
2023-04-18T02:46:09.104Z,27.34
2023-04-18T02:47:09.042Z,27.33
2023-04-18T02:48:09.060Z,27.33
2023-04-18T02:49:08.996Z,27.34
2023-04-18T02:50:09.002Z,27.31
2023-04-18T02:51:08.989Z,27.33
2023-04-18T02:52:08.999Z,27.32
2023-04-18T02:53:08.993Z,27.30
2023-04-18T02:54:09.028Z,27.30
2023-04-18T02:55:08.978Z,27.31
2023-04-18T02:56:08.955Z,27.29
2023-04-18T02:57:08.975Z,27.30
2023-04-18T02:58:08.983Z,27.30
2023-04-18T02:59:08.991Z,27.27
2023-04-18T03:00:08.949Z,27.33
2023-04-18T03:01:08.988Z,27.28
2023-04-18T03:02:09.001Z,27.31
2023-04-18T03:03:08.964Z,27.31
2023-04-18T03:04:08.923Z,27.26
2023-04-18T03:05:09.002Z,27.23
2023-04-18T03:06:08.891Z,27.30
2023-04-18T03:07:08.888Z,27.33
2023-04-18T03:08:08.908Z,27.29
2023-04-18T03:09:08.909Z,27.33
2023-04-18T03:10:08.883Z,27.30
2023-04-18T03:11:08.866Z,27.29
2023-04-18T03:12:08.960Z,27.30
2023-04-18T03:13:08.994Z,27.31
2023-04-18T03:14:08.994Z,27.28
2023-04-18T03:15:08.984Z,27.26
2023-04-18T03:16:09.018Z,27.26
2023-04-18T03:17:08.953Z,27.30
2023-04-18T03:18:09.158Z,27.28
2023-04-18T03:19:09.153Z,27.29
2023-04-18T03:20:09.273Z,27.28
2023-04-18T03:21:09.347Z,27.28
2023-04-18T03:22:09.450Z,27.25
2023-04-18T03:23:09.549Z,27.29
2023-04-18T03:24:10.896Z,27.25
2023-04-18T03:25:09.683Z,27.23
2023-04-18T03:26:09.800Z,27.25
2023-04-18T03:27:09.668Z,27.23
2023-04-18T03:28:09.656Z,27.26
2023-04-18T03:29:52.764Z,27.31
2023-04-18T03:30:52.903Z,27.26
2023-04-18T03:31:52.812Z,27.25
2023-04-18T03:32:52.994Z,27.26
2023-04-18T03:33:52.899Z,27.22
2023-04-18T03:34:52.903Z,27.23
2023-04-18T03:35:52.860Z,27.27
2023-04-18T03:36:52.873Z,27.26
2023-04-18T03:37:52.868Z,27.27
2023-04-18T03:38:52.879Z,27.25
2023-04-18T03:39:52.867Z,27.23
2023-04-18T03:40:52.850Z,27.19
2023-04-18T03:41:52.807Z,27.23
2023-04-18T03:42:52.824Z,27.23
2023-04-18T03:43:52.827Z,27.25
2023-04-18T03:44:52.873Z,27.19
2023-04-18T03:45:52.873Z,27.25
2023-04-18T03:46:52.814Z,27.22
2023-04-18T03:47:52.832Z,27.28
2023-04-18T03:48:52.781Z,27.22
2023-04-18T03:49:52.790Z,27.23
2023-04-18T03:50:52.744Z,27.20
2023-04-18T03:51:52.805Z,27.26
2023-04-18T03:52:52.769Z,27.22
2023-04-18T03:53:52.747Z,27.19
2023-04-18T03:54:52.758Z,27.21
2023-04-18T03:55:52.721Z,27.22
2023-04-18T03:56:52.744Z,27.22
2023-04-18T03:57:52.707Z,27.26
2023-04-18T03:58:52.761Z,27.20
2023-04-18T03:59:52.713Z,27.20
2023-04-18T04:00:52.701Z,27.23
2023-04-18T04:01:52.812Z,27.20
2023-04-18T04:02:52.873Z,27.25
2023-04-18T04:03:52.869Z,27.20
2023-04-18T04:04:52.808Z,27.22
2023-04-18T04:05:52.678Z,27.22
2023-04-18T04:06:52.661Z,27.20
2023-04-18T04:07:52.651Z,27.20
2023-04-18T04:08:52.649Z,27.15
2023-04-18T04:09:52.664Z,27.23
2023-04-18T04:10:52.679Z,27.15
2023-04-18T04:11:52.716Z,27.20
2023-04-18T04:12:52.643Z,27.19
2023-04-18T04:13:52.674Z,27.22
2023-04-18T04:14:52.619Z,27.19
2023-04-18T04:15:52.626Z,27.22
2023-04-18T04:16:52.824Z,27.22
2023-04-18T04:17:52.720Z,27.16
2023-04-18T04:18:52.639Z,27.16
2023-04-18T04:19:52.584Z,27.18
2023-04-18T04:20:52.591Z,27.18
2023-04-18T04:21:52.602Z,27.17
2023-04-18T04:22:52.584Z,27.19
2023-04-18T04:23:52.577Z,27.19
2023-04-18T04:24:52.571Z,27.18
2023-04-18T04:25:52.564Z,27.18
2023-04-18T04:26:52.567Z,27.19
2023-04-18T04:27:52.549Z,27.20
2023-04-18T04:28:52.530Z,27.26
2023-04-18T04:29:52.565Z,27.17
2023-04-18T04:30:52.523Z,27.16
2023-04-18T04:31:52.536Z,27.14
2023-04-18T04:32:52.582Z,27.22
2023-04-18T04:33:52.522Z,27.18
2023-04-18T04:34:52.509Z,27.14
2023-04-18T04:35:52.516Z,27.17
2023-04-18T04:36:52.496Z,27.18
2023-04-18T04:37:52.486Z,27.19
2023-04-18T04:38:52.474Z,27.17
2023-04-18T04:39:52.539Z,27.18
2023-04-18T04:40:52.462Z,27.19
2023-04-18T04:41:52.466Z,27.17
2023-04-18T04:42:52.452Z,27.22
2023-04-18T04:43:52.459Z,27.20
2023-04-18T04:44:52.474Z,27.15
2023-04-18T04:45:52.488Z,27.18
2023-04-18T04:46:52.425Z,27.15
2023-04-18T04:47:52.434Z,27.15
2023-04-18T04:48:52.412Z,27.13
2023-04-18T04:49:52.396Z,27.12
2023-04-18T04:50:52.408Z,27.16
2023-04-18T04:51:52.415Z,27.15
2023-04-18T04:52:52.397Z,27.16
2023-04-18T04:53:52.372Z,27.17
2023-04-18T04:54:52.360Z,27.19
2023-04-18T04:55:52.351Z,27.18
2023-04-18T04:56:52.354Z,27.14
2023-04-18T04:57:52.329Z,27.15
2023-04-18T04:58:52.338Z,27.12
2023-04-18T04:59:52.426Z,27.14
2023-04-18T05:00:52.414Z,27.17
2023-04-18T05:01:52.487Z,27.16
2023-04-18T05:02:52.420Z,27.12
2023-04-18T05:03:52.413Z,27.21
2023-04-18T05:04:52.324Z,27.15
2023-04-18T05:05:52.288Z,27.12
2023-04-18T05:06:52.300Z,27.11
2023-04-18T05:07:52.279Z,27.11
2023-04-18T05:08:52.284Z,27.12
2023-04-18T05:09:52.275Z,27.12
2023-04-18T05:10:52.242Z,27.12
2023-04-18T05:11:52.267Z,27.12
2023-04-18T05:12:52.214Z,27.11
2023-04-18T05:13:52.234Z,27.10
2023-04-18T05:14:52.334Z,27.11
2023-04-18T05:15:52.236Z,27.11
2023-04-18T05:16:52.252Z,27.12
2023-04-18T05:17:52.242Z,27.11
2023-04-18T05:18:52.205Z,27.10
2023-04-18T05:19:52.192Z,27.08
2023-04-18T05:20:52.216Z,27.12
2023-04-18T05:21:52.186Z,27.11
2023-04-18T05:22:52.178Z,27.06
2023-04-18T05:23:52.152Z,27.11
2023-04-18T05:24:52.961Z,27.04
2023-04-18T05:25:52.145Z,27.08
2023-04-18T05:26:52.125Z,27.08
2023-04-18T05:27:52.157Z,27.12
2023-04-18T05:28:52.118Z,27.08
2023-04-18T05:29:52.130Z,27.06
2023-04-18T05:30:52.170Z,27.04
2023-04-18T05:31:52.103Z,27.10
2023-04-18T05:32:52.238Z,27.11
2023-04-18T05:33:52.102Z,27.07
2023-04-18T05:34:52.087Z,27.07
2023-04-18T05:35:52.090Z,27.12
2023-04-18T05:36:52.128Z,27.10
2023-04-18T05:37:52.138Z,27.10
2023-04-18T05:38:52.085Z,27.17
2023-04-18T05:39:52.202Z,27.20
2023-04-18T05:40:52.302Z,27.39
2023-04-18T05:41:52.419Z,27.50
2023-04-18T05:42:52.480Z,27.66
2023-04-18T05:44:02.348Z,27.89
2023-04-18T05:44:53.584Z,28.09
2023-04-18T05:45:52.802Z,28.27
2023-04-18T05:46:52.570Z,28.57
2023-04-18T05:47:52.894Z,28.71
2023-04-18T05:48:52.557Z,28.83
2023-04-18T05:49:52.568Z,29.39
2023-04-18T05:50:52.553Z,29.27
2023-04-18T05:51:52.527Z,29.10
2023-04-18T05:52:52.542Z,29.45
2023-04-18T05:53:52.517Z,27.41
2023-04-18T05:54:52.536Z,26.68
2023-04-18T05:55:52.509Z,26.40
2023-04-18T05:56:52.511Z,26.52
2023-04-18T05:57:52.524Z,26.63
2023-04-18T05:58:52.489Z,26.59
2023-04-18T05:59:52.492Z,26.55
2023-04-18T06:00:52.479Z,26.65
2023-04-18T06:01:52.510Z,27.34
2023-04-18T06:02:52.712Z,28.25
2023-04-18T06:03:52.750Z,28.36
2023-04-18T06:04:52.755Z,28.47
2023-04-18T06:05:52.712Z,28.83
2023-04-18T06:06:52.768Z,28.98
2023-04-18T06:07:52.778Z,29.16
2023-04-18T06:08:52.733Z,29.38
2023-04-18T06:09:52.772Z,29.47
2023-04-18T06:10:52.779Z,29.58
2023-04-18T06:11:52.849Z,29.89
2023-04-18T06:12:52.826Z,30.00
2023-04-18T06:13:52.818Z,30.05
2023-04-18T06:14:52.839Z,30.23
2023-04-18T06:15:52.862Z,30.36
2023-04-18T06:16:52.921Z,30.46
2023-04-18T06:17:52.938Z,30.53
2023-04-18T06:18:52.888Z,30.78
2023-04-18T06:19:52.975Z,30.89
2023-04-18T06:20:52.972Z,30.86
2023-04-18T06:21:53.029Z,30.82
2023-04-18T06:22:53.094Z,31.19
2023-04-18T06:23:53.172Z,31.20
2023-04-18T06:24:53.215Z,31.23
2023-04-18T06:25:53.264Z,31.24
2023-04-18T06:26:54.441Z,31.43
2023-04-18T06:27:53.389Z,31.56
2023-04-18T06:28:53.433Z,31.66
2023-04-18T06:29:53.985Z,31.66
2023-04-18T06:30:53.555Z,31.82
2023-04-18T06:31:53.603Z,32.07
2023-04-18T06:32:53.730Z,32.24
2023-04-18T06:33:53.728Z,32.20
2023-04-18T06:34:53.728Z,32.36
2023-04-18T06:35:53.798Z,32.46
2023-04-18T06:36:53.862Z,32.57
2023-04-18T06:37:53.892Z,32.62
2023-04-18T06:38:53.925Z,32.69
2023-04-18T06:39:53.947Z,32.91
2023-04-18T06:40:53.971Z,32.84
2023-04-18T06:41:53.996Z,32.97
2023-04-18T06:42:54.047Z,33.01
2023-04-18T06:44:03.726Z,33.23
2023-04-18T06:44:55.487Z,33.21
2023-04-18T06:45:54.183Z,33.35
2023-04-18T06:46:54.085Z,33.42
2023-04-18T06:47:54.098Z,33.28
2023-04-18T06:48:54.079Z,33.62
2023-04-18T06:49:54.093Z,33.39
2023-04-18T06:50:54.055Z,30.72
2023-04-18T06:51:54.037Z,29.82
2023-04-18T06:52:54.035Z,28.24
2023-04-18T06:53:54.036Z,27.62
2023-04-18T06:54:54.018Z,27.47
2023-04-18T06:55:54.007Z,28.05
2023-04-18T06:56:54.032Z,28.50
2023-04-18T06:57:54.035Z,27.98
2023-04-18T06:58:54.002Z,27.71
2023-04-18T06:59:53.991Z,28.13
2023-04-18T07:00:54.025Z,28.63
2023-04-18T07:01:54.395Z,28.66
2023-04-18T07:02:54.209Z,28.64
2023-04-18T07:03:54.129Z,28.82
2023-04-18T07:04:54.093Z,29.02
2023-04-18T07:05:54.152Z,29.11
2023-04-18T07:06:54.153Z,29.05
2023-04-18T07:07:54.147Z,29.11
2023-04-18T07:08:54.550Z,29.19
2023-04-18T07:09:54.220Z,29.20
2023-04-18T07:10:54.569Z,29.21
2023-04-18T07:11:54.389Z,29.22
2023-04-18T07:12:54.478Z,29.29
2023-04-18T07:13:54.504Z,29.23
2023-04-18T07:14:54.517Z,29.13
2023-04-18T07:15:54.533Z,29.27
2023-04-18T07:16:54.636Z,29.21
2023-04-18T07:17:54.723Z,29.10
2023-04-18T07:18:54.697Z,29.05
2023-04-18T07:19:54.803Z,29.18
2023-04-18T07:20:54.812Z,29.17
2023-04-18T07:21:54.911Z,29.18
2023-04-18T07:22:54.947Z,29.29
2023-04-18T07:23:55.004Z,29.28
2023-04-18T07:24:55.080Z,29.21
2023-04-18T07:25:55.109Z,29.26
2023-04-18T07:26:55.407Z,29.22
2023-04-18T07:27:55.266Z,29.23
2023-04-18T07:28:55.239Z,29.22
2023-04-18T07:29:55.327Z,29.02
2023-04-18T07:30:55.428Z,29.18
2023-04-18T07:31:55.457Z,29.15
2023-04-18T07:32:55.473Z,29.17
2023-04-18T07:33:55.524Z,29.20
2023-04-18T07:34:55.527Z,29.23
2023-04-18T07:35:55.597Z,29.17
2023-04-18T07:36:55.635Z,29.22
2023-04-18T07:37:55.652Z,29.23
2023-04-18T07:38:55.714Z,29.46
2023-04-18T07:39:55.755Z,29.71
2023-04-18T07:40:56.010Z,29.72
2023-04-18T07:41:56.036Z,29.55
2023-04-18T07:42:55.922Z,29.63
2023-04-18T07:43:55.960Z,29.71
2023-04-18T07:44:56.029Z,29.96
2023-04-18T07:45:56.562Z,29.91
2023-04-18T07:46:56.110Z,29.95
2023-04-18T07:47:56.200Z,30.36
2023-04-18T07:48:56.209Z,30.55
2023-04-18T07:49:56.235Z,30.39
2023-04-18T07:50:56.934Z,30.42
2023-04-18T07:51:56.306Z,30.63
2023-04-18T07:52:56.395Z,30.76
2023-04-18T07:53:56.461Z,30.76
2023-04-18T07:54:56.439Z,30.83
2023-04-18T07:55:56.471Z,30.96
2023-04-18T07:56:56.497Z,31.12
2023-04-18T07:57:56.530Z,31.20
2023-04-18T07:58:56.591Z,31.49
2023-04-18T07:59:56.604Z,31.61
2023-04-18T08:00:56.662Z,31.75
2023-04-18T08:01:56.681Z,31.86
2023-04-18T08:02:56.796Z,31.87
2023-04-18T08:03:56.789Z,32.03
2023-04-18T08:04:56.990Z,32.13
2023-04-18T08:05:56.803Z,32.17
2023-04-18T08:06:56.870Z,32.25
2023-04-18T08:07:56.915Z,32.36
2023-04-18T08:08:56.898Z,32.47
2023-04-18T08:09:56.974Z,32.47
2023-04-18T08:10:56.972Z,32.51
2023-04-18T08:11:56.989Z,32.55
2023-04-18T08:12:57.032Z,32.69
2023-04-18T08:13:57.070Z,32.77
2023-04-18T08:14:57.279Z,32.87
2023-04-18T08:15:57.524Z,32.87
2023-04-18T08:16:57.202Z,32.97
2023-04-18T08:17:57.266Z,32.95
2023-04-18T08:18:57.221Z,33.05
2023-04-18T08:19:57.279Z,33.09
2023-04-18T08:20:57.289Z,33.14
2023-04-18T08:21:57.320Z,33.24
2023-04-18T08:23:06.838Z,33.29
2023-04-18T08:23:58.346Z,33.35
2023-04-18T08:25:04.194Z,33.35
2023-04-18T08:25:58.327Z,33.47
2023-04-18T08:26:57.324Z,33.49
2023-04-18T08:27:57.304Z,33.62
2023-04-18T08:28:57.330Z,33.64
2023-04-18T08:29:57.294Z,33.73
2023-04-18T08:30:57.406Z,33.72
2023-04-18T08:31:57.435Z,33.68
2023-04-18T08:32:58.138Z,33.85
2023-04-18T08:33:57.286Z,33.82
2023-04-18T08:34:57.311Z,33.88
2023-04-18T08:35:57.255Z,34.21
2023-04-18T08:36:57.272Z,34.09
2023-04-18T08:37:57.275Z,34.08
2023-04-18T08:38:57.259Z,34.12
2023-04-18T08:39:57.254Z,34.25
2023-04-18T08:40:57.209Z,34.24
2023-04-18T08:41:57.246Z,34.30
2023-04-18T08:42:57.227Z,34.33
2023-04-18T08:43:57.340Z,34.35
2023-04-18T08:44:57.212Z,34.18
2023-04-18T08:45:57.524Z,30.87
2023-04-18T08:46:57.262Z,30.22
2023-04-18T08:47:57.366Z,30.26
2023-04-18T08:48:57.345Z,30.16
2023-04-18T08:49:57.381Z,30.55
2023-04-18T08:50:57.517Z,30.80
2023-04-18T08:51:57.439Z,30.78
2023-04-18T08:52:57.463Z,30.63
2023-04-18T08:53:57.491Z,30.70
2023-04-18T08:54:57.534Z,30.89
2023-04-18T08:55:57.556Z,30.66
2023-04-18T08:56:57.624Z,30.45
2023-04-18T08:57:57.658Z,29.41
2023-04-18T08:58:57.705Z,29.19
2023-04-18T08:59:57.743Z,29.25
2023-04-18T09:00:57.880Z,28.73
2023-04-18T09:01:57.869Z,29.40
2023-04-18T09:02:57.992Z,29.32
2023-04-18T09:03:57.954Z,29.23
2023-04-18T09:04:58.032Z,30.05
2023-04-18T09:05:58.088Z,30.00
2023-04-18T09:06:58.143Z,30.15
2023-04-18T09:07:58.180Z,30.45
2023-04-18T09:08:58.226Z,30.42
2023-04-18T09:09:58.309Z,30.40
2023-04-18T09:10:58.330Z,30.41
2023-04-18T09:11:58.400Z,30.45
2023-04-18T09:12:58.430Z,30.51
2023-04-18T09:13:58.467Z,30.64
2023-04-18T09:14:58.495Z,30.73
2023-04-18T09:15:58.538Z,30.83
2023-04-18T09:16:58.730Z,30.93
2023-04-18T09:17:58.778Z,31.04
2023-04-18T09:18:58.737Z,31.08
2023-04-18T09:19:58.661Z,31.18
2023-04-18T09:20:58.742Z,31.32
2023-04-18T09:21:58.747Z,31.37
2023-04-18T09:22:58.779Z,31.38
2023-04-18T09:23:58.797Z,31.49
2023-04-18T09:24:58.853Z,31.46
2023-04-18T09:25:58.908Z,31.48
2023-04-18T09:26:58.923Z,31.55
2023-04-18T09:27:58.910Z,31.51
2023-04-18T09:28:58.932Z,31.54
2023-04-18T09:29:58.978Z,31.55
2023-04-18T09:30:59.056Z,31.59
2023-04-18T09:31:59.012Z,31.59
2023-04-18T09:32:59.267Z,31.60
2023-04-18T09:33:59.068Z,31.71
2023-04-18T09:34:59.479Z,31.64
2023-04-18T09:35:59.148Z,31.66
2023-04-18T09:36:59.154Z,31.65
2023-04-18T09:37:59.128Z,31.74
2023-04-18T09:38:59.127Z,31.70
2023-04-18T09:39:59.480Z,31.71
2023-04-18T09:41:00.586Z,31.91
2023-04-18T09:41:59.172Z,31.86
2023-04-18T09:42:59.216Z,31.84
2023-04-18T09:43:59.207Z,31.83
2023-04-18T09:44:59.195Z,31.82
2023-04-18T09:45:59.297Z,31.71
2023-04-18T09:46:59.229Z,31.61
2023-04-18T09:47:59.299Z,31.67
2023-04-18T09:48:59.249Z,31.54
2023-04-18T09:49:59.286Z,31.48
2023-04-18T09:50:59.368Z,31.45
2023-04-18T09:51:59.536Z,31.45
2023-04-18T09:52:59.341Z,31.39
2023-04-18T09:53:59.350Z,31.38
2023-04-18T09:54:59.361Z,31.31
2023-04-18T09:55:59.392Z,31.39
2023-04-18T09:56:59.439Z,31.39
2023-04-18T09:57:59.432Z,31.38
2023-04-18T09:58:59.422Z,31.35
2023-04-18T09:59:59.474Z,31.38
2023-04-18T10:00:59.485Z,31.38
2023-04-18T10:01:59.703Z,31.37
2023-04-18T10:02:59.656Z,31.37
2023-04-18T10:03:59.631Z,31.38
2023-04-18T10:04:59.667Z,31.41
2023-04-18T10:05:59.613Z,31.38
2023-04-18T10:07:00.104Z,31.42
2023-04-18T10:07:59.667Z,31.43
2023-04-18T10:08:59.624Z,31.46
2023-04-18T10:09:59.708Z,31.42
2023-04-18T10:10:59.686Z,31.40
2023-04-18T10:11:59.828Z,31.49
2023-04-18T10:12:59.719Z,31.44
2023-04-18T10:13:59.739Z,31.46
2023-04-18T10:14:59.751Z,31.39
2023-04-18T10:15:59.826Z,31.42
2023-04-18T10:16:59.823Z,31.45
2023-04-18T10:18:05.360Z,31.45
2023-04-18T10:19:00.833Z,31.48
2023-04-18T10:19:59.805Z,31.49
2023-04-18T10:20:59.821Z,31.50
2023-04-18T10:21:59.824Z,31.53
2023-04-18T10:22:59.837Z,31.52
2023-04-18T10:23:59.807Z,31.52
2023-04-18T10:24:59.792Z,31.54
2023-04-18T10:25:59.824Z,31.52
2023-04-18T10:26:59.782Z,31.52
2023-04-18T10:27:59.761Z,31.47
2023-04-18T10:28:59.750Z,31.47
2023-04-18T10:29:59.756Z,31.51
2023-04-18T10:30:59.753Z,31.43
2023-04-18T10:31:59.914Z,31.47
2023-04-18T10:32:59.732Z,31.44
2023-04-18T10:34:04.653Z,31.40
2023-04-18T10:35:00.721Z,31.39
2023-04-18T10:35:59.691Z,31.33
2023-04-18T10:37:00.136Z,31.37
2023-04-18T10:38:00.053Z,31.50
2023-04-18T10:38:59.694Z,31.58
2023-04-18T10:39:59.696Z,31.58
2023-04-18T10:40:59.675Z,31.63
2023-04-18T10:41:59.694Z,32.18
2023-04-18T10:42:59.652Z,32.07
2023-04-18T10:43:59.659Z,32.17
2023-04-18T10:44:59.656Z,32.22
2023-04-18T10:45:59.640Z,32.22
2023-04-18T10:46:59.661Z,32.20
2023-04-18T10:47:59.627Z,32.25
2023-04-18T10:48:59.613Z,32.31
2023-04-18T10:49:59.613Z,32.23
2023-04-18T10:50:59.614Z,32.26
2023-04-18T10:52:00.101Z,32.37
2023-04-18T10:52:59.586Z,32.38
2023-04-18T10:53:59.564Z,32.43
2023-04-18T10:54:59.559Z,32.51
2023-04-18T10:55:59.582Z,32.41
2023-04-18T10:56:59.593Z,32.37
2023-04-18T10:57:59.545Z,32.26
2023-04-18T10:58:59.558Z,32.29
2023-04-18T10:59:59.546Z,32.25
2023-04-18T11:00:59.590Z,32.21
2023-04-18T11:01:59.576Z,32.28
2023-04-18T11:02:59.587Z,32.39
2023-04-18T11:03:59.621Z,32.57
2023-04-18T11:04:59.528Z,32.61
2023-04-18T11:05:59.531Z,32.76
2023-04-18T11:06:59.514Z,32.91
2023-04-18T11:07:59.473Z,33.05
2023-04-18T11:08:59.485Z,33.20
2023-04-18T11:09:59.500Z,33.24
2023-04-18T11:10:59.504Z,33.40
2023-04-18T11:11:59.642Z,33.64
2023-04-18T11:12:59.478Z,33.57
2023-04-18T11:13:59.453Z,33.70
2023-04-18T11:14:59.484Z,33.85
2023-04-18T11:15:59.489Z,34.00
2023-04-18T11:16:59.634Z,34.07
2023-04-18T11:17:59.660Z,34.25
2023-04-18T11:18:59.644Z,34.55
2023-04-18T11:19:59.720Z,34.39
2023-04-18T11:20:59.839Z,34.58
2023-04-18T11:21:59.860Z,34.70
2023-04-18T11:22:59.896Z,34.67
2023-04-18T11:23:59.932Z,34.80
2023-04-18T11:25:00.042Z,34.71
2023-04-18T11:26:00.097Z,34.85
2023-04-18T11:27:00.631Z,34.90
2023-04-18T11:28:00.236Z,34.94
2023-04-18T11:29:00.275Z,34.99
2023-04-18T11:30:00.321Z,35.16
2023-04-18T11:31:00.415Z,35.30
2023-04-18T11:32:00.636Z,35.24
2023-04-18T11:33:00.604Z,34.85
2023-04-18T11:34:00.556Z,34.75
2023-04-18T11:35:00.628Z,34.63
2023-04-18T11:36:00.662Z,34.47
2023-04-18T11:37:01.074Z,34.30
2023-04-18T11:38:00.811Z,34.17
2023-04-18T11:39:00.895Z,34.09
2023-04-18T11:40:00.937Z,34.04
2023-04-18T11:41:00.985Z,34.00
2023-04-18T11:42:01.074Z,33.91
2023-04-18T11:43:01.072Z,33.82
2023-04-18T11:44:01.111Z,33.75
2023-04-18T11:45:01.159Z,33.61
2023-04-18T11:46:01.241Z,33.49
2023-04-18T11:47:01.663Z,33.40
2023-04-18T11:48:01.306Z,33.29
2023-04-18T11:49:01.294Z,33.20
2023-04-18T11:50:01.380Z,33.16
2023-04-18T11:51:01.340Z,33.06
2023-04-18T11:52:01.383Z,32.94
2023-04-18T11:53:01.370Z,32.81
2023-04-18T11:54:01.407Z,32.64
2023-04-18T11:55:01.434Z,32.45
2023-04-18T11:56:01.476Z,32.12
2023-04-18T11:57:01.464Z,32.20
2023-04-18T11:58:01.491Z,32.09
2023-04-18T11:59:01.567Z,32.17
2023-04-18T12:00:01.545Z,32.20
2023-04-18T12:01:01.585Z,32.17
2023-04-18T12:02:12.622Z,32.20
2023-04-18T12:03:02.821Z,32.05
2023-04-18T12:04:01.822Z,32.13
2023-04-18T12:05:01.676Z,32.05
2023-04-18T12:06:01.659Z,31.99
2023-04-18T12:07:01.544Z,31.94
2023-04-18T12:08:01.498Z,31.86
2023-04-18T12:09:01.473Z,31.81
2023-04-18T12:10:01.492Z,31.77
2023-04-18T12:11:01.552Z,31.60
2023-04-18T12:12:01.496Z,31.07
2023-04-18T12:13:01.525Z,31.08
2023-04-18T12:14:03.612Z,31.28
2023-04-18T12:15:01.698Z,31.32
2023-04-18T12:16:01.860Z,31.30
2023-04-18T12:17:01.799Z,31.33
2023-04-18T12:18:01.991Z,31.27
2023-04-18T12:19:01.879Z,31.26
2023-04-18T12:20:01.963Z,31.29
2023-04-18T12:21:02.050Z,31.10
2023-04-18T12:22:02.048Z,31.07
2023-04-18T12:23:02.080Z,30.88
2023-04-18T12:24:02.129Z,30.79
2023-04-18T12:25:02.144Z,30.72
2023-04-18T12:26:02.222Z,30.82
2023-04-18T12:27:02.253Z,30.82
2023-04-18T12:28:02.250Z,30.86
2023-04-18T12:29:02.309Z,30.85
2023-04-18T12:30:02.382Z,30.63
2023-04-18T12:31:02.485Z,30.31
2023-04-18T12:32:02.531Z,30.47
2023-04-18T12:33:02.534Z,30.18
2023-04-18T12:34:02.536Z,30.52
2023-04-18T12:35:02.562Z,30.58
2023-04-18T12:36:02.588Z,30.65
2023-04-18T12:37:02.613Z,30.66
2023-04-18T12:38:02.621Z,30.74
2023-04-18T12:39:02.671Z,30.75
2023-04-18T12:40:02.688Z,30.78
2023-04-18T12:41:02.682Z,30.79
2023-04-18T12:42:04.642Z,30.82
2023-04-18T12:43:03.947Z,30.81
2023-04-18T12:44:02.733Z,30.81
2023-04-18T12:45:02.752Z,30.89
2023-04-18T12:46:02.788Z,30.89
2023-04-18T12:47:02.988Z,30.92
2023-04-18T12:48:02.858Z,30.84
2023-04-18T12:49:02.845Z,30.87
2023-04-18T12:50:02.901Z,30.87
2023-04-18T12:51:02.932Z,30.85
2023-04-18T12:52:02.957Z,30.80
2023-04-18T12:53:03.007Z,30.83